sensor_id;sensor_type;location;lat;lon;timestamp;pressure;altitude;pressure_sealevel;temperature;humidity
79752;BME280;69234;47.446;21.636;2023-07-13T00:00:21;100311.22;;;20.60;97.17
79752;BME280;69234;47.446;21.636;2023-07-13T00:00:52;100311.03;;;20.62;97.03
79752;BME280;69234;47.446;21.636;2023-07-13T00:01:23;100306.63;;;20.61;96.94
79752;BME280;69234;47.446;21.636;2023-07-13T00:01:55;100307.63;;;20.60;96.66
79752;BME280;69234;47.446;21.636;2023-07-13T00:02:26;100295.81;;;20.53;96.58
79752;BME280;69234;47.446;21.636;2023-07-13T00:02:57;100292.25;;;20.52;97.14
79752;BME280;69234;47.446;21.636;2023-07-13T00:03:28;100285.28;;;20.50;96.79
79752;BME280;69234;47.446;21.636;2023-07-13T00:04:01;100297.38;;;20.62;96.97
79752;BME280;69234;47.446;21.636;2023-07-13T00:04:32;100297.56;;;20.60;96.83
79752;BME280;69234;47.446;21.636;2023-07-13T00:05:03;100302.38;;;20.58;97.08
79752;BME280;69234;47.446;21.636;2023-07-13T00:05:34;100289.53;;;20.52;96.24
79752;BME280;69234;47.446;21.636;2023-07-13T00:06:05;100293.31;;;20.51;97.26
79752;BME280;69234;47.446;21.636;2023-07-13T00:06:36;100289.06;;;20.49;96.55
79752;BME280;69234;47.446;21.636;2023-07-13T00:07:08;100302.78;;;20.55;96.95
79752;BME280;69234;47.446;21.636;2023-07-13T00:07:39;100299.00;;;20.56;96.80
79752;BME280;69234;47.446;21.636;2023-07-13T00:08:10;100308.03;;;20.57;96.90
79752;BME280;69234;47.446;21.636;2023-07-13T00:08:42;100301.94;;;20.55;96.46
79752;BME280;69234;47.446;21.636;2023-07-13T00:09:15;100310.97;;;20.55;96.89
79752;BME280;69234;47.446;21.636;2023-07-13T00:09:47;100298.28;;;20.48;96.47
79752;BME280;69234;47.446;21.636;2023-07-13T00:10:19;100290.09;;;20.48;96.69
79752;BME280;69234;47.446;21.636;2023-07-13T00:10:52;100299.22;;;20.55;96.27
79752;BME280;69234;47.446;21.636;2023-07-13T00:11:25;100303.84;;;20.54;96.58
79752;BME280;69234;47.446;21.636;2023-07-13T00:11:57;100305.25;;;20.50;97.07
79752;BME280;69234;47.446;21.636;2023-07-13T00:12:32;100306.94;;;20.51;97.28
79752;BME280;69234;47.446;21.636;2023-07-13T00:13:03;100303.75;;;20.48;97.13
79752;BME280;69234;47.446;21.636;2023-07-13T00:13:34;100312.41;;;20.51;96.81
79752;BME280;69234;47.446;21.636;2023-07-13T00:14:05;100312.03;;;20.54;96.65
79752;BME280;69234;47.446;21.636;2023-07-13T00:14:36;100293.22;;;20.45;96.27
79752;BME280;69234;47.446;21.636;2023-07-13T00:15:18;100301.19;;;20.46;96.78
79752;BME280;69234;47.446;21.636;2023-07-13T00:15:53;100301.66;;;20.50;96.73
79752;BME280;69234;47.446;21.636;2023-07-13T00:16:24;100296.97;;;20.43;96.29
79752;BME280;69234;47.446;21.636;2023-07-13T00:16:56;100303.53;;;20.49;97.17
79752;BME280;69234;47.446;21.636;2023-07-13T00:17:28;100313.44;;;20.50;96.97
79752;BME280;69234;47.446;21.636;2023-07-13T00:17:59;100316.16;;;20.50;97.38
79752;BME280;69234;47.446;21.636;2023-07-13T00:18:31;100311.56;;;20.51;97.07
79752;BME280;69234;47.446;21.636;2023-07-13T00:19:03;100298.69;;;20.45;96.99
79752;BME280;69234;47.446;21.636;2023-07-13T00:19:33;100320.59;;;20.51;97.02
79752;BME280;69234;47.446;21.636;2023-07-13T00:20:08;100310.03;;;20.48;96.89
79752;BME280;69234;47.446;21.636;2023-07-13T00:20:39;100315.28;;;20.50;97.17
79752;BME280;69234;47.446;21.636;2023-07-13T00:21:12;100308.53;;;20.46;97.07
79752;BME280;69234;47.446;21.636;2023-07-13T00:21:43;100310.22;;;20.47;97.12
79752;BME280;69234;47.446;21.636;2023-07-13T00:22:14;100318.41;;;20.47;96.94
79752;BME280;69234;47.446;21.636;2023-07-13T00:22:45;100314.84;;;20.46;97.24
79752;BME280;69234;47.446;21.636;2023-07-13T00:23:16;100317.13;;;20.42;96.59
79752;BME280;69234;47.446;21.636;2023-07-13T00:23:49;100319.28;;;20.47;96.79
79752;BME280;69234;47.446;21.636;2023-07-13T00:24:19;100320.28;;;20.46;97.00
79752;BME280;69234;47.446;21.636;2023-07-13T00:24:54;100312.88;;;20.40;96.66
79752;BME280;69234;47.446;21.636;2023-07-13T00:25:28;100320.91;;;20.41;96.68
79752;BME280;69234;47.446;21.636;2023-07-13T00:26:00;100319.00;;;20.42;96.96
79752;BME280;69234;47.446;21.636;2023-07-13T00:26:31;100314.22;;;20.44;96.84
79752;BME280;69234;47.446;21.636;2023-07-13T00:27:03;100318.16;;;20.41;97.30
79752;BME280;69234;47.446;21.636;2023-07-13T00:27:34;100317.13;;;20.42;97.29
79752;BME280;69234;47.446;21.636;2023-07-13T00:28:05;100315.22;;;20.43;97.67
79752;BME280;69234;47.446;21.636;2023-07-13T00:28:38;100309.91;;;20.35;97.14
79752;BME280;69234;47.446;21.636;2023-07-13T00:29:09;100307.41;;;20.33;97.21
79752;BME280;69234;47.446;21.636;2023-07-13T00:29:40;100321.53;;;20.43;97.29
79752;BME280;69234;47.446;21.636;2023-07-13T00:30:11;100320.44;;;20.38;97.32
79752;BME280;69234;47.446;21.636;2023-07-13T00:30:42;100322.50;;;20.36;97.48
79752;BME280;69234;47.446;21.636;2023-07-13T00:31:15;100324.22;;;20.37;96.99
79752;BME280;69234;47.446;21.636;2023-07-13T00:31:46;100323.34;;;20.36;97.92
79752;BME280;69234;47.446;21.636;2023-07-13T00:32:17;100327.13;;;20.35;97.33
79752;BME280;69234;47.446;21.636;2023-07-13T00:32:48;100321.88;;;20.34;97.11
79752;BME280;69234;47.446;21.636;2023-07-13T00:33:19;100325.84;;;20.31;97.38
79752;BME280;69234;47.446;21.636;2023-07-13T00:33:50;100322.00;;;20.26;97.40
79752;BME280;69234;47.446;21.636;2023-07-13T00:34:21;100333.34;;;20.29;97.29
79752;BME280;69234;47.446;21.636;2023-07-13T00:34:53;100316.38;;;20.27;97.67
79752;BME280;69234;47.446;21.636;2023-07-13T00:35:26;100310.00;;;20.20;97.62
79752;BME280;69234;47.446;21.636;2023-07-13T00:35:57;100329.16;;;20.27;97.79
79752;BME280;69234;47.446;21.636;2023-07-13T00:36:30;100332.53;;;20.29;97.49
79752;BME280;69234;47.446;21.636;2023-07-13T00:37:01;100322.66;;;20.28;97.51
79752;BME280;69234;47.446;21.636;2023-07-13T00:37:33;100317.88;;;20.30;97.87
79752;BME280;69234;47.446;21.636;2023-07-13T00:38:06;100322.91;;;20.33;97.84
79752;BME280;69234;47.446;21.636;2023-07-13T00:38:37;100316.16;;;20.29;97.46
79752;BME280;69234;47.446;21.636;2023-07-13T00:39:08;100318.31;;;20.33;97.29
79752;BME280;69234;47.446;21.636;2023-07-13T00:39:40;100325.44;;;20.34;96.90
79752;BME280;69234;47.446;21.636;2023-07-13T00:40:13;100313.44;;;20.29;97.19
79752;BME280;69234;47.446;21.636;2023-07-13T00:40:44;100321.50;;;20.37;97.70
79752;BME280;69234;47.446;21.636;2023-07-13T00:41:15;100324.22;;;20.37;97.37
79752;BME280;69234;47.446;21.636;2023-07-13T00:41:46;100326.28;;;20.35;97.61
79752;BME280;69234;47.446;21.636;2023-07-13T00:42:17;100317.44;;;20.33;97.32
79752;BME280;69234;47.446;21.636;2023-07-13T00:42:48;100319.78;;;20.36;98.20
79752;BME280;69234;47.446;21.636;2023-07-13T00:43:23;100322.13;;;20.39;97.36
79752;BME280;69234;47.446;21.636;2023-07-13T00:43:54;100330.31;;;20.39;97.19
79752;BME280;69234;47.446;21.636;2023-07-13T00:44:25;100323.34;;;20.36;96.97
79752;BME280;69234;47.446;21.636;2023-07-13T00:46:25;100329.25;;;20.40;97.30
79752;BME280;69234;47.446;21.636;2023-07-13T00:46:56;100329.25;;;20.40;96.86
79752;BME280;69234;47.446;21.636;2023-07-13T00:47:29;100332.00;;;20.40;97.26
79752;BME280;69234;47.446;21.636;2023-07-13T00:47:59;100330.97;;;20.41;97.26
79752;BME280;69234;47.446;21.636;2023-07-13T00:48:34;100325.91;;;20.38;96.74
79752;BME280;69234;47.446;21.636;2023-07-13T00:49:13;100330.53;;;20.37;96.99
79752;BME280;69234;47.446;21.636;2023-07-13T00:49:46;100321.66;;;20.35;97.14
79752;BME280;69234;47.446;21.636;2023-07-13T00:50:20;100321.66;;;20.35;97.20
79752;BME280;69234;47.446;21.636;2023-07-13T00:50:56;100321.50;;;20.37;96.86
79752;BME280;69234;47.446;21.636;2023-07-13T00:51:37;100313.31;;;20.37;96.51
79752;BME280;69234;47.446;21.636;2023-07-13T00:52:09;100320.44;;;20.38;97.13
79752;BME280;69234;47.446;21.636;2023-07-13T00:52:44;100316.88;;;20.37;96.97
79752;BME280;69234;47.446;21.636;2023-07-13T00:53:18;100304.00;;;20.31;96.94
79752;BME280;69234;47.446;21.636;2023-07-13T00:53:54;100322.50;;;20.36;96.16
79752;BME280;69234;47.446;21.636;2023-07-13T00:54:39;100316.22;;;20.35;96.81
79752;BME280;69234;47.446;21.636;2023-07-13T00:55:13;100298.69;;;20.23;96.93
79752;BME280;69234;47.446;21.636;2023-07-13T00:55:46;100316.44;;;20.34;97.00
79752;BME280;69234;47.446;21.636;2023-07-13T00:56:17;100321.03;;;20.33;96.60
79752;BME280;69234;47.446;21.636;2023-07-13T00:56:51;100315.31;;;20.28;97.34
79752;BME280;69234;47.446;21.636;2023-07-13T00:57:24;100309.41;;;20.25;96.90
79752;BME280;69234;47.446;21.636;2023-07-13T00:57:56;100318.69;;;20.30;96.66
79752;BME280;69234;47.446;21.636;2023-07-13T00:58:28;100306.47;;;20.26;97.49
79752;BME280;69234;47.446;21.636;2023-07-13T00:59:02;100320.16;;;20.33;97.12
79752;BME280;69234;47.446;21.636;2023-07-13T00:59:35;100301.00;;;20.26;97.47
79752;BME280;69234;47.446;21.636;2023-07-13T01:00:08;100308.19;;;20.27;96.77
79752;BME280;69234;47.446;21.636;2023-07-13T01:00:40;100316.59;;;20.32;96.85
79752;BME280;69234;47.446;21.636;2023-07-13T01:01:11;100303.13;;;20.24;97.12
79752;BME280;69234;47.446;21.636;2023-07-13T01:01:44;100314.94;;;20.31;97.24
79752;BME280;69234;47.446;21.636;2023-07-13T01:02:15;100304.78;;;20.25;97.41
79752;BME280;69234;47.446;21.636;2023-07-13T01:02:48;100309.47;;;20.31;96.68
79752;BME280;69234;47.446;21.636;2023-07-13T01:03:20;100291.53;;;20.22;96.52
79752;BME280;69234;47.446;21.636;2023-07-13T01:03:51;100309.69;;;20.30;96.80
79752;BME280;69234;47.446;21.636;2023-07-13T01:04:25;100305.44;;;20.27;97.08
79752;BME280;69234;47.446;21.636;2023-07-13T01:04:56;100303.13;;;20.24;96.82
79752;BME280;69234;47.446;21.636;2023-07-13T01:05:27;100307.53;;;20.25;96.94
79752;BME280;69234;47.446;21.636;2023-07-13T01:05:58;100308.34;;;20.26;96.75
79752;BME280;69234;47.446;21.636;2023-07-13T01:06:30;100296.53;;;20.18;97.09
79752;BME280;69234;47.446;21.636;2023-07-13T01:07:06;100299.47;;;20.17;97.07
79752;BME280;69234;47.446;21.636;2023-07-13T01:07:38;100288.75;;;20.15;96.77
79752;BME280;69234;47.446;21.636;2023-07-13T01:08:11;100295.06;;;20.16;97.33
79752;BME280;69234;47.446;21.636;2023-07-13T01:08:42;100308.13;;;20.21;97.12
79752;BME280;69234;47.446;21.636;2023-07-13T01:09:14;100310.84;;;20.21;97.17
79752;BME280;69234;47.446;21.636;2023-07-13T01:09:45;100308.50;;;20.17;96.81
79752;BME280;69234;47.446;21.636;2023-07-13T01:10:16;100306.81;;;20.16;96.93
79752;BME280;69234;47.446;21.636;2023-07-13T01:10:53;100315.63;;;20.18;97.33
79752;BME280;69234;47.446;21.636;2023-07-13T01:11:24;100309.72;;;20.15;97.46
79752;BME280;69234;47.446;21.636;2023-07-13T01:11:55;100314.34;;;20.14;97.00
79752;BME280;69234;47.446;21.636;2023-07-13T01:12:26;100311.63;;;20.14;97.36
79752;BME280;69234;47.446;21.636;2023-07-13T01:12:57;100310.56;;;20.15;97.53
79752;BME280;69234;47.446;21.636;2023-07-13T01:13:30;100313.13;;;20.17;97.45
79752;BME280;69234;47.446;21.636;2023-07-13T01:14:02;100313.28;;;20.15;96.84
79752;BME280;69234;47.446;21.636;2023-07-13T01:14:33;100298.38;;;20.11;97.07
79752;BME280;69234;47.446;21.636;2023-07-13T01:15:05;100303.19;;;20.09;97.00
79752;BME280;69234;47.446;21.636;2023-07-13T01:15:39;100308.22;;;20.12;97.63
79752;BME280;69234;47.446;21.636;2023-07-13T01:16:25;100317.72;;;20.16;97.35
79752;BME280;69234;47.446;21.636;2023-07-13T01:16:57;100308.72;;;20.16;97.62
79752;BME280;69234;47.446;21.636;2023-07-13T01:17:33;100311.63;;;20.14;97.90
79752;BME280;69234;47.446;21.636;2023-07-13T01:18:10;100289.94;;;20.06;97.09
79752;BME280;69234;47.446;21.636;2023-07-13T01:18:41;100308.22;;;20.12;97.71
79752;BME280;69234;47.446;21.636;2023-07-13T01:20:07;100298.56;;;20.10;97.47
79752;BME280;69234;47.446;21.636;2023-07-13T01:20:40;100301.31;;;20.10;97.56
79752;BME280;69234;47.446;21.636;2023-07-13T01:21:11;100295.41;;;20.06;96.92
79752;BME280;69234;47.446;21.636;2023-07-13T01:21:50;100294.59;;;20.12;97.11
79752;BME280;69234;47.446;21.636;2023-07-13T01:22:22;100300.47;;;20.09;97.28
79752;BME280;69234;47.446;21.636;2023-07-13T01:22:57;100302.13;;;20.10;97.58
79752;BME280;69234;47.446;21.636;2023-07-13T01:23:31;100291.41;;;20.09;97.42
79752;BME280;69234;47.446;21.636;2023-07-13T01:24:02;100301.09;;;20.11;97.37
79752;BME280;69234;47.446;21.636;2023-07-13T01:24:35;100286.16;;;20.07;97.48
79752;BME280;69234;47.446;21.636;2023-07-13T01:25:06;100295.63;;;20.11;97.88
79752;BME280;69234;47.446;21.636;2023-07-13T01:25:39;100294.34;;;20.07;97.28
79752;BME280;69234;47.446;21.636;2023-07-13T01:26:10;100298.13;;;20.06;97.83
79752;BME280;69234;47.446;21.636;2023-07-13T01:26:42;100297.06;;;20.07;97.76
79752;BME280;69234;47.446;21.636;2023-07-13T01:27:21;100279.41;;;20.03;98.40
79752;BME280;69234;47.446;21.636;2023-07-13T01:27:54;100295.19;;;20.08;98.15
79752;BME280;69234;47.446;21.636;2023-07-13T01:28:28;100293.69;;;20.05;98.17
79752;BME280;69234;47.446;21.636;2023-07-13T01:28:59;100287.00;;;20.08;97.89
79752;BME280;69234;47.446;21.636;2023-07-13T01:29:32;100287.38;;;20.05;97.93
79752;BME280;69234;47.446;21.636;2023-07-13T01:30:04;100281.94;;;20.05;98.24
79752;BME280;69234;47.446;21.636;2023-07-13T01:30:40;100294.34;;;20.07;98.02
79752;BME280;69234;47.446;21.636;2023-07-13T01:31:12;100290.31;;;20.03;97.75
79752;BME280;69234;47.446;21.636;2023-07-13T01:31:42;100292.66;;;20.06;97.69
79752;BME280;69234;47.446;21.636;2023-07-13T01:32:23;100285.72;;;20.04;97.66
79752;BME280;69234;47.446;21.636;2023-07-13T01:32:55;100287.22;;;20.06;97.83
79752;BME280;69234;47.446;21.636;2023-07-13T01:33:26;100289.94;;;20.06;97.91
79752;BME280;69234;47.446;21.636;2023-07-13T01:33:57;100284.66;;;20.05;97.95
79752;BME280;69234;47.446;21.636;2023-07-13T01:34:28;100284.88;;;20.03;98.24
79752;BME280;69234;47.446;21.636;2023-07-13T01:35:00;100285.25;;;20.00;97.80
79752;BME280;69234;47.446;21.636;2023-07-13T01:35:30;100287.84;;;20.08;97.75
79752;BME280;69234;47.446;21.636;2023-07-13T01:36:01;100289.28;;;20.04;97.87
79752;BME280;69234;47.446;21.636;2023-07-13T01:36:32;100291.16;;;20.04;97.84
79752;BME280;69234;47.446;21.636;2023-07-13T01:37:05;100287.84;;;20.08;97.50
79752;BME280;69234;47.446;21.636;2023-07-13T01:37:36;100295.19;;;20.08;97.81
79752;BME280;69234;47.446;21.636;2023-07-13T01:38:07;100283.66;;;20.06;97.38
79752;BME280;69234;47.446;21.636;2023-07-13T01:38:39;100274.34;;;20.00;97.75
79752;BME280;69234;47.446;21.636;2023-07-13T01:39:11;100290.97;;;20.05;98.16
79752;BME280;69234;47.446;21.636;2023-07-13T01:39:42;100282.59;;;20.07;97.66
79752;BME280;69234;47.446;21.636;2023-07-13T01:40:13;100268.44;;;19.97;97.59
79752;BME280;69234;47.446;21.636;2023-07-13T01:40:44;100283.66;;;20.06;97.37
79752;BME280;69234;47.446;21.636;2023-07-13T01:41:15;100281.94;;;20.05;97.22
79752;BME280;69234;47.446;21.636;2023-07-13T01:41:46;100274.34;;;20.00;98.08
79752;BME280;69234;47.446;21.636;2023-07-13T01:42:17;100269.09;;;19.99;97.60
79752;BME280;69234;47.446;21.636;2023-07-13T01:42:49;100263.44;;;20.00;98.03
79752;BME280;69234;47.446;21.636;2023-07-13T01:43:20;100279.03;;;20.06;97.99
79752;BME280;69234;47.446;21.636;2023-07-13T01:43:52;100279.03;;;20.06;97.30
79752;BME280;69234;47.446;21.636;2023-07-13T01:44:23;100263.66;;;19.99;97.73
79752;BME280;69234;47.446;21.636;2023-07-13T01:44:54;100277.31;;;20.05;97.43
79752;BME280;69234;47.446;21.636;2023-07-13T01:45:24;100284.28;;;20.08;97.54
79752;BME280;69234;47.446;21.636;2023-07-13T01:45:55;100274.13;;;20.02;98.19
79752;BME280;69234;47.446;21.636;2023-07-13T01:46:26;100279.03;;;20.06;97.76
79752;BME280;69234;47.446;21.636;2023-07-13T01:46:58;100284.47;;;20.06;97.68
79752;BME280;69234;47.446;21.636;2023-07-13T01:47:29;100292.00;;;20.04;97.10
79752;BME280;69234;47.446;21.636;2023-07-13T01:48:01;100287.22;;;20.06;97.71
79752;BME280;69234;47.446;21.636;2023-07-13T01:48:32;100290.31;;;20.03;97.71
79752;BME280;69234;47.446;21.636;2023-07-13T01:49:04;100292.47;;;20.08;98.20
79752;BME280;69234;47.446;21.636;2023-07-13T01:49:35;100285.13;;;20.08;97.55
79752;BME280;69234;47.446;21.636;2023-07-13T01:50:07;100289.56;;;20.09;97.75
79752;BME280;69234;47.446;21.636;2023-07-13T01:50:38;100289.56;;;20.09;97.75
79752;BME280;69234;47.446;21.636;2023-07-13T01:51:09;100295.84;;;20.10;97.94
79752;BME280;69234;47.446;21.636;2023-07-13T01:51:40;100298.56;;;20.10;97.70
79752;BME280;69234;47.446;21.636;2023-07-13T01:52:11;100295.84;;;20.10;97.90
79752;BME280;69234;47.446;21.636;2023-07-13T01:52:42;100288.22;;;20.05;97.78
79752;BME280;69234;47.446;21.636;2023-07-13T01:53:13;100291.88;;;20.12;97.61
79752;BME280;69234;47.446;21.636;2023-07-13T01:53:44;100292.06;;;20.11;97.37
79752;BME280;69234;47.446;21.636;2023-07-13T01:54:16;100285.78;;;20.10;97.47
79752;BME280;69234;47.446;21.636;2023-07-13T01:54:47;100282.84;;;20.12;96.74
79752;BME280;69234;47.446;21.636;2023-07-13T01:55:22;100284.94;;;20.10;96.91
79752;BME280;69234;47.446;21.636;2023-07-13T01:55:53;100278.81;;;20.08;97.74
79752;BME280;69234;47.446;21.636;2023-07-13T01:56:24;100270.19;;;20.04;96.65
79752;BME280;69234;47.446;21.636;2023-07-13T01:56:55;100276.09;;;20.08;96.82
79752;BME280;69234;47.446;21.636;2023-07-13T01:57:26;100283.22;;;20.09;97.08
79752;BME280;69234;47.446;21.636;2023-07-13T01:57:57;100274.03;;;20.10;97.32
79752;BME280;69234;47.446;21.636;2023-07-13T01:58:28;100281.38;;;20.09;96.66
79752;BME280;69234;47.446;21.636;2023-07-13T01:58:59;100285.78;;;20.10;97.71
79752;BME280;69234;47.446;21.636;2023-07-13T01:59:31;100276.47;;;20.05;96.98
79752;BME280;69234;47.446;21.636;2023-07-13T02:00:05;100276.94;;;20.08;96.78
79752;BME280;69234;47.446;21.636;2023-07-13T02:00:49;100277.59;;;20.10;97.26
79752;BME280;69234;47.446;21.636;2023-07-13T02:01:20;100275.47;;;20.06;96.96
79752;BME280;69234;47.446;21.636;2023-07-13T02:01:51;100283.44;;;20.07;97.33
79752;BME280;69234;47.446;21.636;2023-07-13T02:02:22;100278.38;;;20.04;96.80
79752;BME280;69234;47.446;21.636;2023-07-13T02:02:53;100285.31;;;20.07;96.60
79752;BME280;69234;47.446;21.636;2023-07-13T02:03:24;100291.22;;;20.10;96.42
79752;BME280;69234;47.446;21.636;2023-07-13T02:03:55;100289.94;;;20.06;96.78
79752;BME280;69234;47.446;21.636;2023-07-13T02:04:26;100299.59;;;20.09;96.71
79752;BME280;69234;47.446;21.636;2023-07-13T02:04:57;100293.06;;;20.03;96.42
79752;BME280;69234;47.446;21.636;2023-07-13T02:05:28;100298.97;;;20.07;96.97
79752;BME280;69234;47.446;21.636;2023-07-13T02:05:59;100291.38;;;20.02;96.66
79752;BME280;69234;47.446;21.636;2023-07-13T02:06:30;100299.13;;;20.05;96.98
79752;BME280;69234;47.446;21.636;2023-07-13T02:07:01;100291.09;;;19.97;96.48
79752;BME280;69234;47.446;21.636;2023-07-13T02:07:33;100287.16;;;20.00;96.78
79752;BME280;69234;47.446;21.636;2023-07-13T02:08:04;100283.81;;;20.04;96.94
79752;BME280;69234;47.446;21.636;2023-07-13T02:08:37;100297.47;;;20.04;96.45
79752;BME280;69234;47.446;21.636;2023-07-13T02:09:08;100280.47;;;20.02;97.17
79752;BME280;69234;47.446;21.636;2023-07-13T02:09:39;100286.94;;;20.01;96.88
79752;BME280;69234;47.446;21.636;2023-07-13T02:10:11;100296.63;;;20.04;96.63
79752;BME280;69234;47.446;21.636;2023-07-13T02:10:42;100282.91;;;19.97;97.14
79752;BME280;69234;47.446;21.636;2023-07-13T02:11:13;100284.59;;;19.98;96.55
79752;BME280;69234;47.446;21.636;2023-07-13T02:11:44;100297.47;;;20.04;96.91
79752;BME280;69234;47.446;21.636;2023-07-13T02:12:15;100290.50;;;20.02;96.76
79752;BME280;69234;47.446;21.636;2023-07-13T02:12:49;100294.56;;;20.06;96.23
79752;BME280;69234;47.446;21.636;2023-07-13T02:13:21;100287.97;;;20.00;96.23
79752;BME280;69234;47.446;21.636;2023-07-13T02:13:52;100290.91;;;19.99;96.48
79752;BME280;69234;47.446;21.636;2023-07-13T02:14:23;100292.22;;;20.03;96.60
79752;BME280;69234;47.446;21.636;2023-07-13T02:14:54;100281.88;;;19.98;96.56
79752;BME280;69234;47.446;21.636;2023-07-13T02:15:24;100293.06;;;20.03;97.00
79752;BME280;69234;47.446;21.636;2023-07-13T02:15:55;100290.25;;;19.97;96.41
79752;BME280;69234;47.446;21.636;2023-07-13T02:16:26;100297.00;;;20.01;96.91
79752;BME280;69234;47.446;21.636;2023-07-13T02:16:57;100300.84;;;20.06;97.33
79752;BME280;69234;47.446;21.636;2023-07-13T02:17:28;100301.88;;;20.05;96.19
79752;BME280;69234;47.446;21.636;2023-07-13T02:17:59;100302.31;;;20.09;96.69
79752;BME280;69234;47.446;21.636;2023-07-13T02:18:30;100293.28;;;20.08;97.22
79752;BME280;69234;47.446;21.636;2023-07-13T02:19:01;100300.47;;;20.09;96.51
79752;BME280;69234;47.446;21.636;2023-07-13T02:19:33;100306.75;;;20.10;97.17
79752;BME280;69234;47.446;21.636;2023-07-13T02:20:04;100306.94;;;20.08;96.85
79752;BME280;69234;47.446;21.636;2023-07-13T02:20:36;100296.22;;;20.07;96.95
79752;BME280;69234;47.446;21.636;2023-07-13T02:21:07;100302.13;;;20.10;96.48
79752;BME280;69234;47.446;21.636;2023-07-13T02:21:38;100304.19;;;20.08;96.73
79752;BME280;69234;47.446;21.636;2023-07-13T02:22:09;100303.19;;;20.09;96.72
79752;BME280;69234;47.446;21.636;2023-07-13T02:22:40;100307.59;;;20.10;96.47
79752;BME280;69234;47.446;21.636;2023-07-13T02:23:11;100294.34;;;20.07;96.90
79752;BME280;69234;47.446;21.636;2023-07-13T02:23:43;100287.00;;;20.08;96.35
79752;BME280;69234;47.446;21.636;2023-07-13T02:24:14;100282.59;;;20.07;96.42
79752;BME280;69234;47.446;21.636;2023-07-13T02:24:49;100292.06;;;20.11;97.09
79752;BME280;69234;47.446;21.636;2023-07-13T02:25:22;100294.59;;;20.12;96.72
79752;BME280;69234;47.446;21.636;2023-07-13T02:25:57;100297.72;;;20.09;96.18
79752;BME280;69234;47.446;21.636;2023-07-13T02:26:28;100277.31;;;20.05;96.51
79752;BME280;69234;47.446;21.636;2023-07-13T02:26:59;100281.94;;;20.05;96.29
79752;BME280;69234;47.446;21.636;2023-07-13T02:27:30;100279.41;;;20.03;96.85
79752;BME280;69234;47.446;21.636;2023-07-13T02:28:01;100290.56;;;20.08;96.83
79752;BME280;69234;47.446;21.636;2023-07-13T02:28:33;100293.28;;;20.08;96.26
79752;BME280;69234;47.446;21.636;2023-07-13T02:29:04;100303.81;;;20.11;96.31
79752;BME280;69234;47.446;21.636;2023-07-13T02:29:35;100282.78;;;20.05;96.88
79752;BME280;69234;47.446;21.636;2023-07-13T02:30:06;100283.66;;;20.06;95.90
79752;BME280;69234;47.446;21.636;2023-07-13T02:30:38;100277.31;;;20.05;96.78
79752;BME280;69234;47.446;21.636;2023-07-13T02:31:13;100286.56;;;20.04;96.00
79752;BME280;69234;47.446;21.636;2023-07-13T02:31:44;100298.19;;;20.13;96.35
79752;BME280;69234;47.446;21.636;2023-07-13T02:32:15;100293.75;;;20.12;96.46
79752;BME280;69234;47.446;21.636;2023-07-13T02:32:46;100290.78;;;20.07;96.77
79752;BME280;69234;47.446;21.636;2023-07-13T02:33:17;100299.66;;;20.15;96.16
79752;BME280;69234;47.446;21.636;2023-07-13T02:33:48;100292.47;;;20.08;96.63
79752;BME280;69234;47.446;21.636;2023-07-13T02:34:19;100289.94;;;20.06;96.07
79752;BME280;69234;47.446;21.636;2023-07-13T02:34:50;100301.09;;;20.11;96.43
79752;BME280;69234;47.446;21.636;2023-07-13T02:35:21;100298.38;;;20.11;96.77
79752;BME280;69234;47.446;21.636;2023-07-13T02:35:52;100301.75;;;20.13;96.41
79752;BME280;69234;47.446;21.636;2023-07-13T02:36:23;100304.28;;;20.15;96.42
79752;BME280;69234;47.446;21.636;2023-07-13T02:36:54;100294.59;;;20.12;96.32
79752;BME280;69234;47.446;21.636;2023-07-13T02:37:25;100294.13;;;20.09;96.02
79752;BME280;69234;47.446;21.636;2023-07-13T02:37:56;100309.28;;;20.11;96.51
79752;BME280;69234;47.446;21.636;2023-07-13T02:38:28;100310.56;;;20.15;96.17
79752;BME280;69234;47.446;21.636;2023-07-13T02:39:05;100297.91;;;20.08;95.61
79752;BME280;69234;47.446;21.636;2023-07-13T02:39:40;100314.34;;;20.14;95.84
79752;BME280;69234;47.446;21.636;2023-07-13T02:40:11;100318.56;;;20.17;95.67
79752;BME280;69234;47.446;21.636;2023-07-13T02:40:42;100316.03;;;20.15;96.24
79752;BME280;69234;47.446;21.636;2023-07-13T02:41:13;100317.06;;;20.14;96.14
79752;BME280;69234;47.446;21.636;2023-07-13T02:41:44;100317.53;;;20.18;95.73
79752;BME280;69234;47.446;21.636;2023-07-13T02:42:18;100326.53;;;20.18;95.69
79752;BME280;69234;47.446;21.636;2023-07-13T02:42:49;100314.72;;;20.11;95.81
79752;BME280;69234;47.446;21.636;2023-07-13T02:43:20;100313.44;;;20.07;95.82
79752;BME280;69234;47.446;21.636;2023-07-13T02:43:52;100318.50;;;20.10;96.27
79752;BME280;69234;47.446;21.636;2023-07-13T02:44:23;100324.19;;;20.15;96.13
79752;BME280;69234;47.446;21.636;2023-07-13T02:44:53;100329.94;;;20.21;95.69
79752;BME280;69234;47.446;21.636;2023-07-13T02:45:24;100318.13;;;20.13;95.97
79752;BME280;69234;47.446;21.636;2023-07-13T02:45:56;100330.78;;;20.21;95.80
79752;BME280;69234;47.446;21.636;2023-07-13T02:46:26;100329.94;;;20.21;95.97
79752;BME280;69234;47.446;21.636;2023-07-13T02:47:00;100319.34;;;20.11;95.56
79752;BME280;69234;47.446;21.636;2023-07-13T02:47:33;100317.72;;;20.16;96.07
79752;BME280;69234;47.446;21.636;2023-07-13T02:48:04;100316.41;;;20.12;95.91